createdAt,value
2023-03-26T00:02:04.556Z,4.20
2023-03-26T00:04:34.544Z,4.20
2023-03-26T00:07:03.269Z,4.70
2023-03-26T00:09:31.365Z,4.90
2023-03-26T00:11:59.439Z,5.20
2023-03-26T00:14:29.305Z,5.30
2023-03-26T00:16:57.217Z,5.00
2023-03-26T00:19:25.579Z,5.30
2023-03-26T00:21:53.683Z,4.80
2023-03-26T00:24:21.613Z,4.10
2023-03-26T00:26:54.371Z,3.90
2023-03-26T00:29:28.190Z,4.00
2023-03-26T00:34:24.963Z,4.30
2023-03-26T00:36:56.002Z,3.60
2023-03-26T00:39:25.679Z,3.50
2023-03-26T00:41:54.864Z,3.60
2023-03-26T00:44:23.512Z,3.70
2023-03-26T00:46:51.506Z,3.40
2023-03-26T00:49:19.409Z,4.00
2023-03-26T00:51:47.390Z,3.50
2023-03-26T00:54:15.761Z,4.10
2023-03-26T00:56:43.680Z,3.40
2023-03-26T00:59:11.933Z,3.60
2023-03-26T01:01:39.976Z,3.40
2023-03-26T01:04:27.970Z,3.50
2023-03-26T01:07:04.162Z,3.50
2023-03-26T01:09:36.023Z,3.70
2023-03-26T01:12:08.201Z,3.40
2023-03-26T01:14:36.273Z,3.70
2023-03-26T01:17:07.210Z,3.50
2023-03-26T01:19:50.562Z,3.50
2023-03-26T01:22:25.373Z,3.70
2023-03-26T01:24:56.485Z,3.30
2023-03-26T01:27:39.082Z,4.00
2023-03-26T01:30:29.458Z,3.80
2023-03-26T01:33:16.296Z,3.60
2023-03-26T01:36:10.114Z,3.80
2023-03-26T01:38:52.087Z,4.20
2023-03-26T01:41:46.937Z,4.10
2023-03-26T01:44:30.416Z,4.20
2023-03-26T01:47:04.681Z,4.40
2023-03-26T01:49:32.707Z,3.40
2023-03-26T01:52:00.740Z,3.90
2023-03-26T01:54:31.792Z,3.90
2023-03-26T01:57:27.751Z,4.10
2023-03-26T02:00:12.294Z,3.50
2023-03-26T02:02:55.196Z,3.90
2023-03-26T02:05:32.801Z,4.00
2023-03-26T02:08:12.019Z,3.90
2023-03-26T02:10:44.383Z,3.80
2023-03-26T02:13:13.306Z,4.50
2023-03-26T02:15:41.621Z,3.70
2023-03-26T02:18:13.567Z,4.10
2023-03-26T02:20:41.861Z,4.70
2023-03-26T02:23:09.929Z,4.10
2023-03-26T02:25:39.975Z,4.40
2023-03-26T02:28:07.893Z,3.80
2023-03-26T02:30:35.807Z,3.70
2023-03-26T02:33:03.840Z,3.80
2023-03-26T02:35:31.850Z,4.20
2023-03-26T02:38:00.046Z,4.10
2023-03-26T02:40:27.927Z,4.10
2023-03-26T02:42:55.738Z,3.70
2023-03-26T02:45:23.749Z,4.10
2023-03-26T02:47:52.344Z,3.90
2023-03-26T02:50:20.394Z,4.40
2023-03-26T02:52:49.972Z,4.40
2023-03-26T02:55:18.009Z,4.90
2023-03-26T02:57:45.873Z,4.10
2023-03-26T03:00:14.378Z,4.40
2023-03-26T03:02:44.471Z,4.50
2023-03-26T03:05:12.698Z,4.50
2023-03-26T03:07:40.713Z,4.20
2023-03-26T03:10:10.118Z,3.90
2023-03-26T03:12:38.035Z,4.10
2023-03-26T03:15:07.261Z,4.70
2023-03-26T03:17:35.630Z,4.40
2023-03-26T03:20:04.519Z,4.40
2023-03-26T03:22:33.612Z,4.70
2023-03-26T03:25:01.798Z,5.20
2023-03-26T03:27:30.902Z,4.90
2023-03-26T03:29:59.261Z,6.00
2023-03-26T03:32:27.738Z,5.50
2023-03-26T03:34:55.597Z,5.50
2023-03-26T03:37:24.717Z,5.70
2023-03-26T03:39:52.679Z,7.30
2023-03-26T03:42:20.809Z,6.70
2023-03-26T03:44:48.759Z,5.90
2023-03-26T03:47:16.669Z,5.50
2023-03-26T03:49:44.453Z,5.40
2023-03-26T03:52:12.266Z,5.10
2023-03-26T03:54:40.128Z,5.20
2023-03-26T03:57:08.011Z,4.90
2023-03-26T03:59:35.899Z,5.50
2023-03-26T04:02:03.905Z,5.70
2023-03-26T04:04:32.898Z,5.40
2023-03-26T04:07:01.335Z,5.30
2023-03-26T04:09:29.250Z,4.90
2023-03-26T04:11:57.153Z,5.70
2023-03-26T04:14:25.178Z,4.50
2023-03-26T04:16:53.074Z,5.60
2023-03-26T04:19:21.282Z,4.90
2023-03-26T04:21:49.596Z,5.10
2023-03-26T04:24:17.542Z,5.00
2023-03-26T04:26:48.235Z,5.90
2023-03-26T04:29:18.374Z,4.50
2023-03-26T04:31:47.243Z,6.50
2023-03-26T04:34:24.435Z,5.80
2023-03-26T04:36:55.970Z,5.70
2023-03-26T04:39:29.349Z,6.00
2023-03-26T04:41:57.985Z,5.70
2023-03-26T04:44:26.147Z,5.20
2023-03-26T04:46:55.289Z,5.30
2023-03-26T04:49:23.320Z,5.70
2023-03-26T04:51:51.472Z,4.90
2023-03-26T04:54:22.438Z,6.20
2023-03-26T04:56:56.829Z,5.60
2023-03-26T04:59:31.574Z,5.30
2023-03-26T05:02:00.368Z,5.40
2023-03-26T05:04:36.819Z,5.00
2023-03-26T05:07:05.112Z,5.40
2023-03-26T05:09:33.385Z,5.20
2023-03-26T05:12:01.474Z,5.00
2023-03-26T05:14:29.518Z,5.20
2023-03-26T05:16:57.582Z,4.90
2023-03-26T05:19:25.409Z,6.00
2023-03-26T05:21:53.217Z,5.10
2023-03-26T05:24:21.093Z,5.70
2023-03-26T05:26:49.071Z,6.00
2023-03-26T05:29:17.966Z,5.90
2023-03-26T05:31:46.095Z,5.80
2023-03-26T05:34:14.097Z,4.80
2023-03-26T05:36:42.642Z,4.90
2023-03-26T05:39:10.859Z,4.80
2023-03-26T05:41:38.784Z,4.90
2023-03-26T05:44:06.757Z,4.80
2023-03-26T05:46:34.809Z,4.80
2023-03-26T05:49:02.687Z,4.40
2023-03-26T05:51:30.686Z,5.00
2023-03-26T05:53:58.593Z,4.70
2023-03-26T05:56:26.512Z,4.90
2023-03-26T05:58:57.255Z,4.80
2023-03-26T06:01:25.668Z,5.00
2023-03-26T06:03:53.762Z,4.70
2023-03-26T06:06:21.940Z,4.20
2023-03-26T06:09:01.560Z,4.00
2023-03-26T06:11:32.210Z,4.40
2023-03-26T06:14:01.081Z,4.10
2023-03-26T06:16:29.061Z,3.80
2023-03-26T06:18:57.831Z,3.80
2023-03-26T06:21:26.754Z,3.90
2023-03-26T06:23:55.503Z,4.50
2023-03-26T06:26:23.530Z,4.00
2023-03-26T06:28:51.468Z,3.60
2023-03-26T06:31:19.606Z,3.90
2023-03-26T06:33:48.955Z,3.60
2023-03-26T06:36:16.988Z,4.00
2023-03-26T06:38:44.933Z,3.40
2023-03-26T06:41:13.141Z,4.10
2023-03-26T06:43:40.956Z,4.00
2023-03-26T06:46:09.263Z,3.80
2023-03-26T06:48:37.257Z,4.20
2023-03-26T06:51:05.891Z,3.60
2023-03-26T06:53:33.821Z,4.10
2023-03-26T06:56:03.255Z,3.70
2023-03-26T06:58:31.380Z,3.80
2023-03-26T07:00:59.685Z,3.60
2023-03-26T07:03:28.386Z,3.70
2023-03-26T07:05:56.525Z,4.30
2023-03-26T07:08:26.311Z,3.60
2023-03-26T07:10:54.622Z,3.00
2023-03-26T07:13:22.743Z,3.10
2023-03-26T07:15:50.826Z,3.20
2023-03-26T07:18:18.657Z,3.00
2023-03-26T07:20:46.906Z,2.90
2023-03-26T07:23:15.776Z,2.80
2023-03-26T07:25:44.100Z,2.70
2023-03-26T07:28:39.464Z,3.20
2023-03-26T07:31:24.819Z,3.20
2023-03-26T07:34:04.041Z,2.80
2023-03-26T07:37:03.727Z,3.40
2023-03-26T07:39:57.952Z,2.60
2023-03-26T07:42:34.460Z,3.00
2023-03-26T07:45:22.625Z,4.00
2023-03-26T07:47:53.639Z,3.40
2023-03-26T07:50:24.094Z,3.50
2023-03-26T07:52:55.058Z,4.30
2023-03-26T07:55:25.050Z,4.70
2023-03-26T07:57:55.600Z,4.20
2023-03-26T08:00:42.776Z,4.30
2023-03-26T08:03:22.871Z,3.40
2023-03-26T08:05:50.714Z,3.10
2023-03-26T08:08:44.543Z,3.50
2023-03-26T08:11:24.150Z,3.40
2023-03-26T08:14:07.115Z,2.70
2023-03-26T08:16:41.922Z,2.20
2023-03-26T08:19:33.330Z,2.70
2023-03-26T08:22:28.785Z,2.70
2023-03-26T08:25:18.490Z,2.40
2023-03-26T08:28:21.824Z,3.10
2023-03-26T08:30:50.556Z,3.00
2023-03-26T08:33:20.666Z,4.30
2023-03-26T08:35:49.261Z,4.80
2023-03-26T08:38:20.563Z,5.40
2023-03-26T08:41:10.421Z,4.50
2023-03-26T08:43:55.098Z,3.30
2023-03-26T08:46:42.181Z,3.30
2023-03-26T08:49:48.128Z,3.10
2023-03-26T08:52:28.345Z,2.00
2023-03-26T08:55:35.347Z,2.00
2023-03-26T08:58:53.356Z,1.90
2023-03-26T09:01:56.826Z,2.10
2023-03-26T09:04:43.259Z,2.10
2023-03-26T09:07:22.929Z,2.80
2023-03-26T09:10:12.146Z,2.40
2023-03-26T09:13:15.401Z,2.60
2023-03-26T09:16:11.677Z,2.20
2023-03-26T09:19:18.163Z,1.60
2023-03-26T09:22:04.561Z,1.80
2023-03-26T09:24:32.536Z,3.30
2023-03-26T09:27:30.519Z,2.20
2023-03-26T09:30:01.264Z,2.20
2023-03-26T09:32:39.121Z,1.80
2023-03-26T09:35:16.107Z,1.90
2023-03-26T09:38:11.772Z,2.10
2023-03-26T09:40:59.523Z,2.20
2023-03-26T09:43:42.348Z,1.80
2023-03-26T09:46:21.025Z,2.10
2023-03-26T09:48:54.562Z,2.20
2023-03-26T09:51:53.563Z,8.40
2023-03-26T09:54:44.298Z,4.30
2023-03-26T09:57:15.509Z,2.50
2023-03-26T09:59:57.693Z,1.70
2023-03-26T10:02:47.659Z,5.00
2023-03-26T10:05:20.077Z,9.00
2023-03-26T10:08:04.076Z,3.60
2023-03-26T10:10:44.274Z,2.40
2023-03-26T10:13:35.527Z,4.50
2023-03-26T10:16:15.609Z,3.50
2023-03-26T10:19:07.816Z,2.40
2023-03-26T10:21:53.559Z,2.20
2023-03-26T10:24:34.526Z,2.40
2023-03-26T10:27:11.494Z,2.40
2023-03-26T10:30:00.289Z,2.30
2023-03-26T10:33:16.126Z,2.10
2023-03-26T10:35:50.302Z,2.40
2023-03-26T10:38:21.319Z,3.10
2023-03-26T10:41:06.094Z,2.20
2023-03-26T10:44:09.059Z,2.40
2023-03-26T10:46:44.541Z,2.90
2023-03-26T10:49:40.321Z,2.80
2023-03-26T10:52:12.638Z,2.70
2023-03-26T10:55:04.198Z,2.30
2023-03-26T10:57:52.445Z,3.90
2023-03-26T11:00:26.839Z,4.20
2023-03-26T11:03:16.667Z,2.40
2023-03-26T11:06:02.942Z,2.50
2023-03-26T11:08:38.181Z,2.30
2023-03-26T11:11:24.175Z,2.40
2023-03-26T11:14:03.676Z,2.70
2023-03-26T11:16:40.754Z,2.80
2023-03-26T11:19:17.001Z,2.30
2023-03-26T11:21:54.403Z,1.40
2023-03-26T11:24:46.950Z,1.50
2023-03-26T11:27:32.720Z,1.90
2023-03-26T11:30:34.334Z,1.60
2023-03-26T11:33:06.711Z,1.70
2023-03-26T11:35:46.789Z,1.70
2023-03-26T11:38:29.005Z,1.60
2023-03-26T11:40:59.308Z,1.30
2023-03-26T11:43:35.553Z,1.50
2023-03-26T11:46:06.394Z,1.70
2023-03-26T11:48:39.820Z,1.40
2023-03-26T11:51:10.829Z,1.70
2023-03-26T11:53:39.956Z,1.80
2023-03-26T11:56:18.402Z,1.60
2023-03-26T11:59:01.839Z,1.90
2023-03-26T12:01:50.714Z,1.60
2023-03-26T12:04:25.734Z,1.20
2023-03-26T12:06:57.746Z,2.00
2023-03-26T12:09:26.735Z,1.30
2023-03-26T12:12:01.296Z,1.40
2023-03-26T12:14:33.262Z,1.40
2023-03-26T12:17:05.290Z,1.50
2023-03-26T12:19:42.542Z,1.20
2023-03-26T12:22:30.862Z,1.40
2023-03-26T12:25:21.266Z,1.20
2023-03-26T12:28:08.166Z,1.50
2023-03-26T12:30:41.310Z,1.50
2023-03-26T12:33:34.167Z,1.30
2023-03-26T12:36:23.301Z,1.60
2023-03-26T12:39:43.163Z,1.40
2023-03-26T12:43:40.534Z,1.30
2023-03-26T12:44:54.390Z,1.60
2023-03-26T12:47:58.452Z,1.30
2023-03-26T12:50:34.464Z,1.50
2023-03-26T12:53:12.492Z,1.40
2023-03-26T12:55:49.840Z,1.30
2023-03-26T12:58:51.496Z,1.10
2023-03-26T13:01:47.492Z,1.50
2023-03-26T13:04:43.635Z,1.10
2023-03-26T13:07:38.409Z,1.40
2023-03-26T13:10:27.958Z,1.40
2023-03-26T13:13:14.965Z,1.40
2023-03-26T13:15:52.885Z,1.10
2023-03-26T13:18:48.903Z,1.60
2023-03-26T13:21:39.076Z,1.10
2023-03-26T13:24:13.771Z,1.30
2023-03-26T13:26:56.444Z,1.00
2023-03-26T13:30:01.617Z,1.20
2023-03-26T13:32:44.050Z,1.30
2023-03-26T13:35:34.595Z,1.20
2023-03-26T13:38:20.698Z,1.30
2023-03-26T13:41:11.780Z,1.20
2023-03-26T13:43:54.281Z,1.10
2023-03-26T13:46:34.523Z,1.60
2023-03-26T13:49:08.256Z,1.20
2023-03-26T13:51:45.019Z,1.20
2023-03-26T13:54:44.687Z,1.40
2023-03-26T13:57:41.588Z,1.30
2023-03-26T14:00:21.857Z,1.40
2023-03-26T14:02:58.147Z,1.20
2023-03-26T14:05:47.235Z,1.30
2023-03-26T14:08:31.743Z,1.80
2023-03-26T14:11:21.535Z,1.70
2023-03-26T14:14:01.284Z,2.30
2023-03-26T14:16:36.528Z,1.50
2023-03-26T14:19:36.088Z,1.50
2023-03-26T14:22:35.297Z,1.60
2023-03-26T14:25:08.679Z,1.30
2023-03-26T14:28:12.975Z,1.10
2023-03-26T14:31:08.770Z,1.30
2023-03-26T14:34:00.439Z,1.50
2023-03-26T14:36:53.001Z,1.80
2023-03-26T14:40:04.999Z,1.60
2023-03-26T14:42:43.429Z,1.70
2023-03-26T14:45:49.798Z,1.30
2023-03-26T14:48:36.661Z,1.30
2023-03-26T14:51:41.512Z,1.80
2023-03-26T14:54:14.798Z,1.50
2023-03-26T14:57:31.737Z,1.40
2023-03-26T15:00:22.427Z,1.40
2023-03-26T15:03:34.829Z,1.20
2023-03-26T15:06:15.403Z,1.40
2023-03-26T15:09:11.540Z,1.20
2023-03-26T15:12:20.935Z,1.40
2023-03-26T15:15:17.193Z,1.70
2023-03-26T15:17:58.596Z,1.70
2023-03-26T15:20:39.666Z,1.70
2023-03-26T15:23:47.492Z,2.30
2023-03-26T15:26:46.122Z,2.10
2023-03-26T15:29:36.915Z,1.80
2023-03-26T15:32:35.020Z,2.00
2023-03-26T15:35:19.927Z,1.70
2023-03-26T15:38:09.080Z,1.70
2023-03-26T15:40:49.971Z,1.40
2023-03-26T15:43:23.136Z,1.40
2023-03-26T15:46:15.009Z,1.80
2023-03-26T15:49:14.619Z,1.70
2023-03-26T15:51:47.608Z,1.40
2023-03-26T15:54:25.732Z,1.70
2023-03-26T15:57:16.559Z,1.30
2023-03-26T16:00:32.041Z,1.30
2023-03-26T16:03:11.686Z,1.10
2023-03-26T16:06:02.343Z,1.40
2023-03-26T16:08:53.170Z,1.70
2023-03-26T16:12:09.278Z,1.70
2023-03-26T16:14:47.610Z,1.60
2023-03-26T16:17:23.335Z,2.10
2023-03-26T16:20:33.166Z,2.10
2023-03-26T16:23:06.224Z,2.00
2023-03-26T16:25:53.137Z,2.00
2023-03-26T16:28:29.307Z,2.50
2023-03-26T16:31:36.579Z,2.50
2023-03-26T16:34:08.356Z,3.00
2023-03-26T16:36:44.320Z,2.60
2023-03-26T16:39:19.181Z,2.60
2023-03-26T16:41:53.063Z,2.70
2023-03-26T16:44:56.785Z,2.90
2023-03-26T16:48:03.771Z,4.30
2023-03-26T16:50:50.108Z,4.00
2023-03-26T16:53:41.887Z,4.30
2023-03-26T16:56:28.071Z,4.20
2023-03-26T16:59:01.841Z,3.60
2023-03-26T17:01:45.969Z,4.20
2023-03-26T17:07:01.769Z,3.70
2023-03-26T17:09:58.566Z,4.00
2023-03-26T17:12:26.308Z,3.70
2023-03-26T17:15:36.809Z,4.10
2023-03-26T17:18:35.829Z,3.70
2023-03-26T17:21:11.302Z,5.60
2023-03-26T17:24:06.471Z,3.40
2023-03-26T17:26:52.215Z,3.00
2023-03-26T17:29:52.191Z,3.00
2023-03-26T17:32:21.613Z,3.20
2023-03-26T17:34:58.316Z,3.60
2023-03-26T17:37:55.915Z,3.00
2023-03-26T17:40:51.584Z,3.10
2023-03-26T17:43:50.075Z,3.60
2023-03-26T17:46:39.439Z,3.90
2023-03-26T17:49:13.925Z,4.00
2023-03-26T17:51:52.602Z,3.70
2023-03-26T17:54:34.815Z,4.10
2023-03-26T17:57:11.179Z,3.50
2023-03-26T17:59:41.139Z,4.40
2023-03-26T18:02:16.316Z,4.60
2023-03-26T18:04:48.277Z,4.20
2023-03-26T18:07:32.000Z,4.10
2023-03-26T18:10:33.526Z,4.00
2023-03-26T18:13:35.499Z,4.90
2023-03-26T18:16:15.847Z,4.90
2023-03-26T18:18:57.826Z,4.60
2023-03-26T18:21:37.625Z,4.40
2023-03-26T18:24:21.898Z,5.00
2023-03-26T18:26:56.507Z,5.90
2023-03-26T18:29:27.561Z,6.20
2023-03-26T18:31:58.255Z,6.30
2023-03-26T18:34:29.668Z,7.00
2023-03-26T18:37:18.040Z,6.40
2023-03-26T18:39:58.132Z,5.90
2023-03-26T18:42:28.334Z,6.00
2023-03-26T18:44:59.842Z,7.40
2023-03-26T18:47:31.675Z,6.70
2023-03-26T18:50:00.175Z,6.60
2023-03-26T18:52:31.771Z,7.30
2023-03-26T18:55:01.724Z,6.90
2023-03-26T18:57:29.979Z,7.00
2023-03-26T19:00:15.582Z,7.50
2023-03-26T19:02:45.288Z,7.90
2023-03-26T19:05:15.522Z,8.00
2023-03-26T19:07:46.430Z,7.40
2023-03-26T19:10:18.939Z,8.00
2023-03-26T19:12:56.021Z,8.20
2023-03-26T19:15:27.221Z,8.40
2023-03-26T19:18:03.835Z,8.70
2023-03-26T19:20:39.224Z,8.90
2023-03-26T19:23:13.374Z,9.60
2023-03-26T19:25:51.383Z,9.00
2023-03-26T19:28:25.833Z,10.80
2023-03-26T19:30:57.708Z,10.30
2023-03-26T19:33:34.596Z,9.90
2023-03-26T19:36:18.070Z,11.30
2023-03-26T19:38:50.269Z,10.70
2023-03-26T19:41:32.438Z,11.90
2023-03-26T19:44:03.302Z,12.00
2023-03-26T19:46:34.549Z,12.80
2023-03-26T19:49:30.072Z,11.90
2023-03-26T19:52:12.709Z,12.70
2023-03-26T19:55:00.143Z,12.50
2023-03-26T19:57:33.108Z,12.20
2023-03-26T20:00:01.017Z,13.40
2023-03-26T20:02:29.120Z,11.90
2023-03-26T20:04:57.645Z,11.20
2023-03-26T20:07:35.399Z,9.90
2023-03-26T20:10:05.680Z,10.10
2023-03-26T20:12:33.873Z,9.30
2023-03-26T20:15:02.156Z,10.10
2023-03-26T20:17:31.115Z,9.90
2023-03-26T20:19:59.783Z,9.80
2023-03-26T20:22:27.822Z,10.40
2023-03-26T20:24:55.707Z,10.70
2023-03-26T20:27:23.616Z,10.40
2023-03-26T20:29:51.548Z,10.80
2023-03-26T20:32:26.291Z,10.70
2023-03-26T20:34:55.102Z,10.90
2023-03-26T20:37:23.412Z,10.80
2023-03-26T20:39:51.430Z,10.30
2023-03-26T20:42:19.426Z,11.00
2023-03-26T20:44:47.438Z,12.10
2023-03-26T20:47:15.335Z,11.60
2023-03-26T20:49:43.241Z,11.60
2023-03-26T20:52:13.782Z,12.70
2023-03-26T20:54:42.011Z,12.60
2023-03-26T20:57:13.778Z,11.60
2023-03-26T20:59:42.228Z,10.90
2023-03-26T21:02:12.110Z,10.90
2023-03-26T21:04:40.284Z,11.90
2023-03-26T21:07:17.752Z,11.00
2023-03-26T21:09:48.716Z,11.60
2023-03-26T21:12:28.129Z,10.50
2023-03-26T21:14:56.813Z,11.00
2023-03-26T21:17:25.015Z,11.20
2023-03-26T21:19:53.510Z,11.90
2023-03-26T21:22:43.438Z,12.90
2023-03-26T21:25:21.087Z,11.80
2023-03-26T21:28:00.733Z,11.80
2023-03-26T21:30:28.977Z,12.70
2023-03-26T21:32:56.945Z,11.70
2023-03-26T21:35:25.361Z,12.50
2023-03-26T21:37:54.202Z,12.00
2023-03-26T21:40:22.345Z,12.20
2023-03-26T21:42:53.473Z,12.60
2023-03-26T21:45:22.328Z,13.00
2023-03-26T21:47:50.789Z,12.90
2023-03-26T21:50:21.968Z,13.30
2023-03-26T21:52:51.836Z,11.80
2023-03-26T21:55:22.105Z,13.50
2023-03-26T21:58:11.148Z,14.20
2023-03-26T22:01:20.799Z,14.20
2023-03-26T22:04:00.501Z,13.60
2023-03-26T22:06:43.894Z,14.30
2023-03-26T22:09:13.741Z,14.90
2023-03-26T22:11:42.188Z,14.50
2023-03-26T22:14:13.256Z,14.60
2023-03-26T22:16:41.690Z,15.30
2023-03-26T22:19:10.823Z,15.90
2023-03-26T22:21:38.895Z,15.00
2023-03-26T22:24:07.560Z,16.30
2023-03-26T22:26:36.884Z,15.90
2023-03-26T22:29:05.417Z,14.80
2023-03-26T22:31:33.553Z,14.60
2023-03-26T22:34:01.541Z,14.30
2023-03-26T22:36:29.637Z,14.20
2023-03-26T22:38:57.575Z,13.60
2023-03-26T22:41:26.204Z,14.60
2023-03-26T22:43:54.961Z,14.30
2023-03-26T22:46:23.808Z,15.00
2023-03-26T22:48:51.766Z,15.60
2023-03-26T22:51:19.743Z,15.60
2023-03-26T22:53:47.734Z,15.80
2023-03-26T22:56:15.886Z,15.20
2023-03-26T22:58:43.717Z,14.80
2023-03-26T23:01:16.898Z,15.00
2023-03-26T23:03:45.005Z,16.00
2023-03-26T23:06:13.486Z,14.80
2023-03-26T23:08:41.894Z,13.80
2023-03-26T23:11:16.243Z,14.30
2023-03-26T23:13:45.347Z,14.30
2023-03-26T23:16:14.331Z,13.20
2023-03-26T23:18:42.437Z,13.20
2023-03-26T23:21:19.679Z,12.80
2023-03-26T23:23:49.449Z,14.00
2023-03-26T23:26:17.875Z,13.50
2023-03-26T23:28:46.059Z,14.10
2023-03-26T23:31:14.595Z,13.20
2023-03-26T23:33:46.715Z,13.40
2023-03-26T23:36:18.361Z,13.60
2023-03-26T23:38:48.623Z,13.60
2023-03-26T23:41:21.540Z,13.60
2023-03-26T23:43:56.880Z,13.50
2023-03-26T23:46:30.999Z,13.80
2023-03-26T23:49:03.484Z,14.70
2023-03-26T23:51:32.163Z,14.70
2023-03-26T23:54:00.656Z,14.10
2023-03-26T23:56:29.911Z,14.30
2023-03-26T23:58:59.374Z,13.40
